Flugplatz Dachau-Gröbenried

Für EDMD sind keine METAR/TAF Berichte vorhanden.
Es werden die Flugwettermeldungen vom Flugplatz Oberpfaffenhofen in 19 km Entfernung angezeigt.

Bericht für EDMO

vom 20.10. um 02:50 UTC

variable Windrichtung mit 2 kt

Sichtweite 10 km oder mehr

keine Wolken

Temperatur 9.0°C

Taupunkt 8.0°C

Luftfeuchtigkeit 93%

Luftdruck 1020 hPa

EDMO 200250Z AUTO VRB02KT 9999 // NCD 09/08 Q1020
Keine Prognose (TAF) verfügbar.
Impressum